createdAt,value
2018-06-03T00:02:14.749Z,79.00
2018-06-03T00:04:41.799Z,79.20
2018-06-03T00:07:08.661Z,79.50
2018-06-03T00:09:35.621Z,80.00
2018-06-03T00:12:02.571Z,79.90
2018-06-03T00:14:29.424Z,79.50
2018-06-03T00:16:56.287Z,79.40
2018-06-03T00:19:23.135Z,79.50
2018-06-03T00:21:50.821Z,79.80
2018-06-03T00:24:17.672Z,80.00
2018-06-03T00:26:44.559Z,80.00
2018-06-03T00:29:11.429Z,80.60
2018-06-03T00:31:38.289Z,80.30
2018-06-03T00:34:05.151Z,80.30
2018-06-03T00:36:41.983Z,80.60
2018-06-03T00:39:08.876Z,80.80
2018-06-03T00:41:35.751Z,80.90
2018-06-03T00:44:02.639Z,81.20
2018-06-03T00:46:29.902Z,81.30
2018-06-03T00:48:57.225Z,80.80
2018-06-03T00:51:24.174Z,80.80
2018-06-03T00:53:51.044Z,80.30
2018-06-03T00:59:59.124Z,80.50
2018-06-03T01:02:26.498Z,80.70
2018-06-03T01:04:53.843Z,81.20
2018-06-03T01:07:21.182Z,81.20
2018-06-03T01:09:48.496Z,81.20
2018-06-03T01:12:15.848Z,81.30
2018-06-03T01:14:43.972Z,81.20
2018-06-03T01:17:11.384Z,81.20
2018-06-03T01:19:38.733Z,81.10
2018-06-03T01:22:06.043Z,81.20
2018-06-03T01:24:33.391Z,81.50
2018-06-03T01:27:00.798Z,81.50
2018-06-03T01:29:28.121Z,81.50
2018-06-03T01:31:55.481Z,81.30
2018-06-03T01:34:22.813Z,81.70
2018-06-03T01:36:50.162Z,81.90
2018-06-03T01:39:17.929Z,81.80
2018-06-03T01:41:45.379Z,81.60
2018-06-03T01:44:12.745Z,81.70
2018-06-03T01:46:40.097Z,81.90
2018-06-03T01:51:34.631Z,82.00
2018-06-03T01:54:02.039Z,81.80
2018-06-03T01:56:29.363Z,81.50
2018-06-03T01:58:56.691Z,81.40
2018-06-03T02:01:24.089Z,81.20
2018-06-03T02:03:51.441Z,81.60
2018-06-03T02:06:18.800Z,81.50
2018-06-03T02:08:46.139Z,81.70
2018-06-03T02:11:13.471Z,81.50
2018-06-03T02:13:40.812Z,81.40
2018-06-03T02:16:08.150Z,81.80
2018-06-03T02:18:35.478Z,82.10
2018-06-03T02:21:02.895Z,82.10
2018-06-03T02:23:30.232Z,82.40
2018-06-03T02:25:57.558Z,82.00
2018-06-03T02:28:25.013Z,82.10
2018-06-03T02:30:52.346Z,81.90
2018-06-03T02:33:19.685Z,81.90
2018-06-03T02:35:47.031Z,82.20
2018-06-03T02:38:14.332Z,82.30
2018-06-03T02:40:41.673Z,82.00
2018-06-03T02:43:08.984Z,82.30
2018-06-03T02:45:36.346Z,82.60
2018-06-03T02:48:03.689Z,82.60
2018-06-03T02:50:31.024Z,82.30
2018-06-03T02:52:58.332Z,82.00
2018-06-03T02:55:25.671Z,82.10
2018-06-03T02:57:53.046Z,82.40
2018-06-03T03:00:20.378Z,82.20
2018-06-03T03:02:47.693Z,82.10
2018-06-03T03:05:15.022Z,82.20
2018-06-03T03:07:42.337Z,81.90
2018-06-03T03:10:09.679Z,82.00
2018-06-03T03:12:37.021Z,82.40
2018-06-03T03:15:04.580Z,82.30
2018-06-03T03:17:31.898Z,82.20
2018-06-03T03:19:59.220Z,82.00
2018-06-03T03:22:26.587Z,81.70
2018-06-03T03:24:53.952Z,81.90
2018-06-03T03:27:21.264Z,82.40
2018-06-03T03:29:48.564Z,82.40
2018-06-03T03:32:15.867Z,82.30
2018-06-03T03:34:43.239Z,81.90
2018-06-03T03:37:10.564Z,81.70
2018-06-03T03:39:37.900Z,81.70
2018-06-03T03:42:05.229Z,81.90
2018-06-03T03:44:32.555Z,81.90
2018-06-03T03:46:59.885Z,81.80
2018-06-03T03:49:27.252Z,81.50
2018-06-03T03:51:54.580Z,81.50
2018-06-03T03:56:49.108Z,82.00
2018-06-03T03:59:16.452Z,82.40
2018-06-03T04:01:43.806Z,82.50
2018-06-03T04:04:11.159Z,82.20
2018-06-03T04:06:38.485Z,82.10
2018-06-03T04:09:06.165Z,81.90
2018-06-03T04:11:33.486Z,81.90
2018-06-03T04:14:00.813Z,82.00
2018-06-03T04:16:28.168Z,82.00
2018-06-03T04:18:55.535Z,81.70
2018-06-03T04:21:22.874Z,81.60
2018-06-03T04:23:50.197Z,81.20
2018-06-03T04:26:17.530Z,80.90
2018-06-03T04:28:44.877Z,80.70
2018-06-03T04:31:12.235Z,80.50
2018-06-03T04:33:39.578Z,80.40
2018-06-03T04:36:06.908Z,80.40
2018-06-03T04:41:01.616Z,80.00
2018-06-03T04:43:28.975Z,79.70
2018-06-03T04:45:56.323Z,79.80
2018-06-03T04:48:23.645Z,79.60
2018-06-03T04:50:51.996Z,79.50
2018-06-03T04:53:19.339Z,79.40
2018-06-03T04:55:46.649Z,79.10
2018-06-03T04:58:14.007Z,78.90
2018-06-03T05:00:41.362Z,78.80
2018-06-03T05:03:08.702Z,78.60
2018-06-03T05:05:36.068Z,78.40
2018-06-03T05:08:03.801Z,78.40
2018-06-03T05:10:31.162Z,78.30
2018-06-03T05:12:58.535Z,78.20
2018-06-03T05:15:25.938Z,78.20
2018-06-03T05:17:53.256Z,78.30
2018-06-03T05:20:20.573Z,78.30
2018-06-03T05:22:47.904Z,78.20
2018-06-03T05:25:15.232Z,78.20
2018-06-03T05:27:42.612Z,78.10
2018-06-03T05:30:09.961Z,77.60
2018-06-03T05:32:37.331Z,77.40
2018-06-03T05:35:04.832Z,77.10
2018-06-03T05:37:32.187Z,77.00
2018-06-03T05:39:59.582Z,76.90
2018-06-03T05:42:26.932Z,76.80
2018-06-03T05:44:54.279Z,76.50
2018-06-03T05:47:21.607Z,76.20
2018-06-03T05:49:48.937Z,75.90
2018-06-03T05:52:16.248Z,75.80
2018-06-03T05:54:43.593Z,75.30
2018-06-03T05:57:10.914Z,75.10
2018-06-03T05:59:38.333Z,74.50
2018-06-03T06:02:05.705Z,74.00
2018-06-03T06:04:33.110Z,73.40
2018-06-03T06:07:00.451Z,73.00
2018-06-03T06:09:27.791Z,73.00
2018-06-03T06:11:55.132Z,72.70
2018-06-03T06:14:22.458Z,72.80
2018-06-03T06:16:49.805Z,73.00
2018-06-03T06:19:17.110Z,72.80
2018-06-03T06:21:44.440Z,72.40
2018-06-03T06:24:12.007Z,72.40
2018-06-03T06:26:39.451Z,72.60
2018-06-03T06:29:06.888Z,72.30
2018-06-03T06:31:34.844Z,72.00
2018-06-03T06:34:02.318Z,72.30
2018-06-03T06:36:29.815Z,72.90
2018-06-03T06:38:57.117Z,72.70
2018-06-03T06:41:24.521Z,72.20
2018-06-03T06:43:51.831Z,72.00
2018-06-03T06:46:19.209Z,72.20
2018-06-03T06:48:46.584Z,72.20
2018-06-03T06:51:13.907Z,72.40
2018-06-03T06:53:41.257Z,71.80
2018-06-03T06:56:08.582Z,71.80
2018-06-03T06:58:35.918Z,71.60
2018-06-03T07:01:04.064Z,71.00
2018-06-03T07:03:31.400Z,70.90
2018-06-03T07:05:58.773Z,71.10
2018-06-03T07:08:26.093Z,70.40
2018-06-03T07:10:53.484Z,70.50
2018-06-03T07:13:20.843Z,70.60
2018-06-03T07:15:48.193Z,70.90
2018-06-03T07:18:15.531Z,70.40
2018-06-03T07:20:42.853Z,70.30
2018-06-03T07:23:10.351Z,69.50
2018-06-03T07:25:37.749Z,69.40
2018-06-03T07:28:05.085Z,69.00
2018-06-03T07:30:32.393Z,68.40
2018-06-03T07:32:59.769Z,68.30
2018-06-03T07:35:27.335Z,68.30
2018-06-03T07:37:54.647Z,67.70
2018-06-03T07:40:22.018Z,66.00
2018-06-03T07:42:49.912Z,67.20
2018-06-03T07:45:17.298Z,67.40
2018-06-03T07:47:44.618Z,67.50
2018-06-03T07:50:11.993Z,67.20
2018-06-03T07:52:39.358Z,67.10
2018-06-03T07:55:06.709Z,67.10
2018-06-03T07:57:34.128Z,67.70
2018-06-03T08:00:01.479Z,67.20
2018-06-03T08:02:28.814Z,65.80
2018-06-03T08:04:56.208Z,66.00
2018-06-03T08:07:23.641Z,65.80
2018-06-03T08:09:51.098Z,66.20
2018-06-03T08:12:18.638Z,65.50
2018-06-03T08:14:45.951Z,65.90
2018-06-03T08:17:13.325Z,66.50
2018-06-03T08:19:40.770Z,66.90
2018-06-03T08:22:08.124Z,67.20
2018-06-03T08:24:35.467Z,67.00
2018-06-03T08:27:02.859Z,67.20
2018-06-03T08:29:30.250Z,67.20
2018-06-03T08:31:57.604Z,65.70
2018-06-03T08:34:24.962Z,65.10
2018-06-03T08:36:52.419Z,66.20
2018-06-03T08:39:20.029Z,66.90
2018-06-03T08:41:47.300Z,67.50
2018-06-03T08:44:14.693Z,66.40
2018-06-03T08:46:42.145Z,66.40
2018-06-03T08:49:09.477Z,65.80
2018-06-03T08:51:36.852Z,66.10
2018-06-03T08:54:04.344Z,65.30
2018-06-03T08:58:58.922Z,65.40
2018-06-03T09:01:26.243Z,63.80
2018-06-03T09:03:53.690Z,63.80
2018-06-03T09:06:21.068Z,64.80
2018-06-03T09:08:48.396Z,65.00
2018-06-03T09:11:16.109Z,63.90
2018-06-03T09:13:43.495Z,63.40
2018-06-03T09:16:10.850Z,63.90
2018-06-03T09:18:38.188Z,63.40
2018-06-03T09:21:05.829Z,62.70
2018-06-03T09:23:33.129Z,62.20
2018-06-03T09:26:00.494Z,61.70
2018-06-03T09:28:27.785Z,59.60
2018-06-03T09:30:55.128Z,60.00
2018-06-03T09:33:22.461Z,58.80
2018-06-03T09:35:49.830Z,58.20
2018-06-03T09:38:17.181Z,58.80
2018-06-03T09:40:44.512Z,58.10
2018-06-03T09:43:11.842Z,56.90
2018-06-03T09:45:39.421Z,57.90
2018-06-03T09:48:06.893Z,57.90
2018-06-03T09:50:34.167Z,58.00
2018-06-03T09:53:01.558Z,58.20
2018-06-03T09:55:28.827Z,58.10
2018-06-03T09:57:56.197Z,57.90
2018-06-03T10:00:23.598Z,58.70
2018-06-03T10:02:50.964Z,58.30
2018-06-03T10:05:18.323Z,58.40
2018-06-03T10:07:45.679Z,58.30
2018-06-03T10:10:13.063Z,58.50
2018-06-03T10:12:40.417Z,59.30
2018-06-03T10:15:07.827Z,59.30
2018-06-03T10:17:35.180Z,60.70
2018-06-03T10:20:02.517Z,61.30
2018-06-03T10:22:29.879Z,61.50
2018-06-03T10:24:57.247Z,62.30
2018-06-03T10:27:24.643Z,61.90
2018-06-03T10:29:52.030Z,62.10
2018-06-03T10:32:19.413Z,61.90
2018-06-03T10:34:46.794Z,61.70
2018-06-03T10:37:14.160Z,60.40
2018-06-03T10:39:41.512Z,60.70
2018-06-03T10:42:08.817Z,59.20
2018-06-03T10:44:36.154Z,58.50
2018-06-03T10:47:03.476Z,58.60
2018-06-03T10:49:30.801Z,58.10
2018-06-03T10:51:58.129Z,57.20
2018-06-03T10:54:25.516Z,57.60
2018-06-03T10:56:52.880Z,57.50
2018-06-03T10:59:20.217Z,57.10
2018-06-03T11:01:47.532Z,57.30
2018-06-03T11:04:14.857Z,57.40
2018-06-03T11:06:42.267Z,57.90
2018-06-03T11:09:09.598Z,57.60
2018-06-03T11:11:36.960Z,56.70
2018-06-03T11:14:04.286Z,56.00
2018-06-03T11:16:31.607Z,56.00
2018-06-03T11:18:58.995Z,56.90
2018-06-03T11:21:26.319Z,58.00
2018-06-03T11:23:53.647Z,58.60
2018-06-03T11:26:21.454Z,59.40
2018-06-03T11:28:48.786Z,59.70
2018-06-03T11:31:16.117Z,59.20
2018-06-03T11:33:43.454Z,59.60
2018-06-03T11:36:10.770Z,59.30
2018-06-03T11:38:38.127Z,59.20
2018-06-03T11:41:05.444Z,59.20
2018-06-03T11:43:32.763Z,59.60
2018-06-03T11:46:00.092Z,59.50
2018-06-03T11:48:27.508Z,59.90
2018-06-03T11:50:54.859Z,60.00
2018-06-03T11:53:22.192Z,59.20
2018-06-03T11:55:49.563Z,57.60
2018-06-03T12:01:47.711Z,57.30
2018-06-03T12:06:42.504Z,57.10
2018-06-03T12:09:09.857Z,57.30
2018-06-03T12:11:37.187Z,57.60
2018-06-03T12:14:04.543Z,57.40
2018-06-03T12:16:31.880Z,57.10
2018-06-03T12:18:59.243Z,56.70
2018-06-03T12:21:26.600Z,56.40
2018-06-03T12:23:53.989Z,56.00
2018-06-03T12:26:21.614Z,55.80
2018-06-03T12:28:48.963Z,55.50
2018-06-03T12:31:16.274Z,55.30
2018-06-03T12:33:43.588Z,54.70
2018-06-03T12:36:10.923Z,54.60
2018-06-03T12:38:38.267Z,54.70
2018-06-03T12:41:05.651Z,55.60
2018-06-03T12:43:32.983Z,55.60
2018-06-03T12:46:00.319Z,55.70
2018-06-03T12:50:54.836Z,55.50
2018-06-03T12:53:22.156Z,55.50
2018-06-03T12:55:49.631Z,56.20
2018-06-03T12:58:17.081Z,56.20
2018-06-03T13:00:44.575Z,56.70
2018-06-03T13:03:11.963Z,57.20
2018-06-03T13:05:39.260Z,55.80
2018-06-03T13:08:06.561Z,56.00
2018-06-03T13:10:33.974Z,55.70
2018-06-03T13:13:01.271Z,55.40
2018-06-03T13:15:28.637Z,55.40
2018-06-03T13:17:56.083Z,55.20
2018-06-03T13:20:23.478Z,55.90
2018-06-03T13:25:18.124Z,55.30
2018-06-03T13:27:45.516Z,55.00
2018-06-03T13:30:12.839Z,55.70
2018-06-03T13:32:40.170Z,54.90
2018-06-03T13:35:07.540Z,53.90
2018-06-03T13:37:34.945Z,54.50
2018-06-03T13:40:02.237Z,54.40
2018-06-03T13:44:56.788Z,53.60
2018-06-03T13:47:24.305Z,54.20
2018-06-03T13:49:51.657Z,55.00
2018-06-03T13:52:19.445Z,54.90
2018-06-03T13:54:46.797Z,54.20
2018-06-03T13:57:14.122Z,54.70
2018-06-03T13:59:41.553Z,54.80
2018-06-03T14:02:08.894Z,55.90
2018-06-03T14:04:36.250Z,54.30
2018-06-03T14:07:03.612Z,55.20
2018-06-03T14:09:30.944Z,54.30
2018-06-03T14:11:58.308Z,53.90
2018-06-03T14:14:25.679Z,52.80
2018-06-03T14:16:53.088Z,52.70
2018-06-03T14:21:47.635Z,53.40
2018-06-03T14:24:14.991Z,53.30
2018-06-03T14:26:42.303Z,53.90
2018-06-03T14:29:09.635Z,54.40
2018-06-03T14:31:36.963Z,55.60
2018-06-03T14:34:04.279Z,55.20
2018-06-03T14:38:58.769Z,55.30
2018-06-03T14:41:26.134Z,55.90
2018-06-03T14:43:53.491Z,55.80
2018-06-03T14:46:20.880Z,55.70
2018-06-03T14:48:48.186Z,54.70
2018-06-03T14:51:15.548Z,55.30
2018-06-03T14:53:42.858Z,55.70
2018-06-03T14:56:10.193Z,54.50
2018-06-03T14:58:37.454Z,54.60
2018-06-03T15:01:04.902Z,55.10
2018-06-03T15:03:32.205Z,55.20
2018-06-03T15:05:59.710Z,53.80
2018-06-03T15:08:27.030Z,53.70
2018-06-03T15:10:54.346Z,54.10
2018-06-03T15:13:21.736Z,53.10
2018-06-03T15:15:49.141Z,54.20
2018-06-03T15:18:16.485Z,54.00
2018-06-03T15:20:43.827Z,53.80
2018-06-03T15:23:11.187Z,54.30
2018-06-03T15:25:38.526Z,54.60
2018-06-03T15:28:05.840Z,54.60
2018-06-03T15:30:33.177Z,54.70
2018-06-03T15:33:00.483Z,54.20
2018-06-03T15:35:27.819Z,54.00
2018-06-03T15:37:55.174Z,54.20
2018-06-03T15:40:22.517Z,52.90
2018-06-03T15:42:49.891Z,53.60
2018-06-03T15:45:17.200Z,54.60
2018-06-03T15:47:44.639Z,55.90
2018-06-03T15:50:11.990Z,55.80
2018-06-03T15:52:39.325Z,55.50
2018-06-03T15:55:06.844Z,54.90
2018-06-03T15:57:34.143Z,54.30
2018-06-03T16:00:01.499Z,53.10
2018-06-03T16:02:28.852Z,54.00
2018-06-03T16:04:56.249Z,54.20
2018-06-03T16:07:24.361Z,53.60
2018-06-03T16:09:51.732Z,53.70
2018-06-03T16:12:19.039Z,53.90
2018-06-03T16:14:46.380Z,54.50
2018-06-03T16:17:13.707Z,54.10
2018-06-03T16:19:41.117Z,53.80
2018-06-03T16:22:08.443Z,52.40
2018-06-03T16:24:35.750Z,52.90
2018-06-03T16:27:03.082Z,52.50
2018-06-03T16:29:30.387Z,52.10
2018-06-03T16:31:57.716Z,50.90
2018-06-03T16:34:25.077Z,51.00
2018-06-03T16:36:52.536Z,48.10
2018-06-03T16:39:19.917Z,47.90
2018-06-03T16:41:47.215Z,49.50
2018-06-03T16:44:14.599Z,51.10
2018-06-03T16:46:41.956Z,51.60
2018-06-03T16:49:09.280Z,52.00
2018-06-03T16:51:36.628Z,51.10
2018-06-03T16:54:03.958Z,49.60
2018-06-03T16:56:31.288Z,48.40
2018-06-03T16:58:58.719Z,47.80
2018-06-03T17:01:26.101Z,46.50
2018-06-03T17:03:53.444Z,45.30
2018-06-03T17:06:20.884Z,45.00
2018-06-03T17:08:48.231Z,44.10
2018-06-03T17:11:15.596Z,44.20
2018-06-03T17:13:42.956Z,44.40
2018-06-03T17:16:10.407Z,44.40
2018-06-03T17:18:37.737Z,43.40
2018-06-03T17:21:05.224Z,43.70
2018-06-03T17:23:32.632Z,43.20
2018-06-03T17:25:59.989Z,42.50
2018-06-03T17:28:27.356Z,42.40
2018-06-03T17:30:54.715Z,42.70
2018-06-03T17:35:49.369Z,41.50
2018-06-03T17:38:16.687Z,41.90
2018-06-03T17:40:44.007Z,42.60
2018-06-03T17:43:11.375Z,42.80
2018-06-03T17:45:38.768Z,43.70
2018-06-03T17:48:06.191Z,43.90
2018-06-03T17:50:33.520Z,43.70
2018-06-03T17:53:00.875Z,43.10
2018-06-03T17:55:28.223Z,43.00
2018-06-03T17:57:55.546Z,42.80
2018-06-03T18:00:23.007Z,43.10
2018-06-03T18:02:50.360Z,43.30
2018-06-03T18:05:17.726Z,44.10
2018-06-03T18:07:45.077Z,45.10
2018-06-03T18:10:12.400Z,46.00
2018-06-03T18:12:39.749Z,46.90
2018-06-03T18:15:07.397Z,47.70
2018-06-03T18:17:34.724Z,49.30
2018-06-03T18:20:02.055Z,50.00
2018-06-03T18:22:29.376Z,50.60
2018-06-03T18:24:56.741Z,51.20
2018-06-03T18:27:24.154Z,52.30
2018-06-03T18:29:51.473Z,53.10
2018-06-03T18:32:18.782Z,53.40
2018-06-03T18:34:46.184Z,54.40
2018-06-03T18:37:13.517Z,54.90
2018-06-03T18:39:40.855Z,55.30
2018-06-03T18:42:08.274Z,55.20
2018-06-03T18:44:35.595Z,55.60
2018-06-03T18:47:02.937Z,55.70
2018-06-03T18:49:30.337Z,56.00
2018-06-03T18:51:57.664Z,56.30
2018-06-03T18:54:25.070Z,56.60
2018-06-03T18:56:52.396Z,56.50
2018-06-03T18:59:19.793Z,56.90
2018-06-03T19:01:47.058Z,57.10
2018-06-03T19:04:14.396Z,57.00
2018-06-03T19:06:41.724Z,57.10
2018-06-03T19:09:09.055Z,57.40
2018-06-03T19:11:36.416Z,57.40
2018-06-03T19:14:03.725Z,57.90
2018-06-03T19:16:31.064Z,58.20
2018-06-03T19:18:58.392Z,58.30
2018-06-03T19:21:25.781Z,58.60
2018-06-03T19:23:53.191Z,59.00
2018-06-03T19:26:21.133Z,59.50
2018-06-03T19:28:48.456Z,60.10
2018-06-03T19:31:15.803Z,60.40
2018-06-03T19:33:43.146Z,60.60
2018-06-03T19:36:10.451Z,60.90
2018-06-03T19:38:37.784Z,61.40
2018-06-03T19:41:05.346Z,61.60
2018-06-03T19:43:32.680Z,62.00
2018-06-03T19:46:00.024Z,62.10
2018-06-03T19:48:27.347Z,62.30
2018-06-03T19:50:54.737Z,62.20
2018-06-03T19:53:22.111Z,62.30
2018-06-03T19:55:49.956Z,62.50
2018-06-03T19:58:17.502Z,62.80
2018-06-03T20:00:44.808Z,62.80
2018-06-03T20:03:12.157Z,63.20
2018-06-03T20:05:39.481Z,63.40
2018-06-03T20:08:06.800Z,63.60
2018-06-03T20:10:34.186Z,63.60
2018-06-03T20:13:01.492Z,63.70
2018-06-03T20:15:28.771Z,64.10
2018-06-03T20:17:56.146Z,64.30
2018-06-03T20:20:23.518Z,64.40
2018-06-03T20:22:51.088Z,64.50
2018-06-03T20:25:18.391Z,64.50
2018-06-03T20:27:45.755Z,64.60
2018-06-03T20:30:13.087Z,64.90
2018-06-03T20:32:40.406Z,64.70
2018-06-03T20:35:07.748Z,64.80
2018-06-03T20:37:35.082Z,65.00
2018-06-03T20:40:02.389Z,64.80
2018-06-03T20:42:29.736Z,65.80
2018-06-03T20:44:57.183Z,65.70
2018-06-03T20:47:24.512Z,65.90
2018-06-03T20:49:51.905Z,65.80
2018-06-03T20:54:49.259Z,65.80
2018-06-03T20:57:16.591Z,64.90
2018-06-03T20:59:44.026Z,64.90
2018-06-03T21:02:11.423Z,64.60
2018-06-03T21:04:38.745Z,64.80
2018-06-03T21:07:06.264Z,64.70
2018-06-03T21:09:33.633Z,65.00
2018-06-03T21:12:00.960Z,65.00
2018-06-03T21:14:28.299Z,64.80
2018-06-03T21:16:55.660Z,65.40
2018-06-03T21:19:23.037Z,65.50
2018-06-03T21:21:50.472Z,65.50
2018-06-03T21:24:17.789Z,65.70
2018-06-03T21:26:45.099Z,65.80
2018-06-03T21:29:12.479Z,65.80
2018-06-03T21:31:39.826Z,66.00
2018-06-03T21:34:07.158Z,66.20
2018-06-03T21:36:34.507Z,66.50
2018-06-03T21:39:01.854Z,66.50
2018-06-03T21:41:29.187Z,66.40
2018-06-03T21:43:56.525Z,66.20
2018-06-03T21:46:23.884Z,66.40
2018-06-03T21:48:51.209Z,66.60
2018-06-03T21:51:18.559Z,66.90
2018-06-03T21:53:45.895Z,67.10
2018-06-03T21:56:13.234Z,66.90
2018-06-03T21:58:40.584Z,66.90
2018-06-03T22:01:07.923Z,67.10
2018-06-03T22:03:35.742Z,66.80
2018-06-03T22:06:03.111Z,67.00
2018-06-03T22:08:30.483Z,67.30
2018-06-03T22:10:57.783Z,67.20
2018-06-03T22:13:25.160Z,67.30
2018-06-03T22:15:52.896Z,67.70
2018-06-03T22:18:20.251Z,68.00
2018-06-03T22:20:47.557Z,68.20
2018-06-03T22:23:14.971Z,68.30
2018-06-03T22:25:42.344Z,68.30
2018-06-03T22:28:09.656Z,68.60
2018-06-03T22:30:37.005Z,68.70
2018-06-03T22:33:04.369Z,68.80
2018-06-03T22:35:31.685Z,68.90
2018-06-03T22:37:59.008Z,69.40
2018-06-03T22:40:26.373Z,69.10
2018-06-03T22:42:53.691Z,69.30
2018-06-03T22:45:21.073Z,69.30
2018-06-03T22:47:48.372Z,69.30
2018-06-03T22:52:42.891Z,69.60
2018-06-03T22:55:10.227Z,69.70
2018-06-03T22:57:47.538Z,69.70
2018-06-03T23:00:15.712Z,69.60
2018-06-03T23:02:43.067Z,69.80
2018-06-03T23:05:10.404Z,69.60
2018-06-03T23:07:37.723Z,69.90
2018-06-03T23:10:05.053Z,69.90
2018-06-03T23:12:32.423Z,69.90
2018-06-03T23:14:59.750Z,70.30
2018-06-03T23:17:27.092Z,70.40
2018-06-03T23:19:54.408Z,70.90
2018-06-03T23:22:21.742Z,70.90
2018-06-03T23:24:49.204Z,70.90
2018-06-03T23:27:16.519Z,70.90
2018-06-03T23:29:43.868Z,71.20
2018-06-03T23:32:11.202Z,71.40
2018-06-03T23:34:38.543Z,71.20
2018-06-03T23:37:05.867Z,71.20
2018-06-03T23:39:33.197Z,71.40
2018-06-03T23:42:00.533Z,71.50
2018-06-03T23:44:27.855Z,71.60
2018-06-03T23:46:55.217Z,71.60
2018-06-03T23:49:22.548Z,71.60
2018-06-03T23:51:49.893Z,71.80
2018-06-03T23:54:17.193Z,72.30
2018-06-03T23:56:44.553Z,72.50
2018-06-03T23:59:11.888Z,72.40
